Главная страница
METAR-TAF:

METAR-TAF

Аэропорты :

Синоп, Турция

широта: 42-00-57N, долгота: 035-03-59E, высота над уровнем моря: 7 м

Текущие метеонаблюдения

Эта сводка был подготовлена 1 час и 19 минут назад, в 14:50 UTC
Ветер 2 Узел от восточный
Температура 12°C
Влажность 62%
Давление 1017 hPa
Видимость 10 км и более
небольшая облачность на высоте 3000 фута
Отдельные облака на высоте 9000 фута

METAR: LTCM 151450Z 10002KT 9999 FEW030 SCT090 12/05 Q1017

Время: 19:09 (16:09 UTC)

Прогноз

Эта сводка был подготовлена 2 часа и 29 минут назад, в 13:40 UTC
Прогноз действительный с 15-го 15 UTC до 15-го 24 UTC
Ветер 2 Узел переменных направлений
Видимость 10 км и более
Нет облачности ниже 1500 м, и нет кучево-дождевой облачности

TAF: LTCM 151340Z 1515/1524 VRB02KT CAVOK

Метеонаблюдения и прогнозы для более 4000 аэропортов (сводки METAR и TAF).

Имеющиеся станции представлены на карте желтыми и красными точками.

Чтобы увидеть название станции, наведите на нее мышь.

Затем щелкните, чтобы увидеть метеонаблюдения и метеопрогнозы.

Управление картой: чтобы увеличить масштаб, щелкните зеленые кнопки с черным крестиком; чтобы уменьшить масштаб, щелкните зеленую кнопку с тире; для просмотра соседних карт щелкайте зеленые стрелки.


METAR-TAF: